Time;durP1;ratioP1;P1;durP2;ratioP2;P2;SDS_P1;SDS_P2;PMS_P1;PMS_P2;Temp;Humidity;BMP_temperature;BMP_pressure;BME280_temperature;BME280_humidity;BME280_pressure;Samples;Min_cycle;Max_cycle;Signal;HPM_P1;HPM_P2
2022/09/20 00:00:48;;;;;;;7.13;2.60;;;11.80;99.90;;;;;;5033899;28;20256;-43
2022/09/20 00:03:15;;;;;;;8.13;2.33;;;11.80;99.90;;;;;;5033932;28;20204;-44
2022/09/20 00:05:43;;;;;;;4.47;2.50;;;11.80;99.90;;;;;;5033996;28;20193;-42
2022/09/20 00:08:13;;;;;;;7.80;3.13;;;11.80;99.90;;;;;;5033812;28;20243;-42
2022/09/20 00:10:39;;;;;;;5.37;2.60;;;11.80;99.90;;;;;;5032539;28;20180;-42
2022/09/20 00:13:06;;;;;;;6.37;2.30;;;11.80;99.90;;;;;;5034051;28;20756;-43
2022/09/20 00:15:32;;;;;;;6.47;2.70;;;11.80;99.90;;;;;;5033843;28;20183;-42
2022/09/20 00:17:58;;;;;;;7.40;2.23;;;11.80;99.90;;;;;;5033493;28;20200;-41
2022/09/20 00:20:24;;;;;;;9.10;2.77;;;11.80;99.90;;;;;;5033480;28;20177;-42
2022/09/20 00:22:50;;;;;;;6.17;2.37;;;11.80;99.90;;;;;;5033667;28;20637;-42
2022/09/20 00:25:17;;;;;;;5.73;2.50;;;11.80;99.90;;;;;;5034114;28;20184;-43
2022/09/20 00:27:43;;;;;;;4.80;2.10;;;11.80;99.90;;;;;;5033253;28;20255;-41
2022/09/20 00:30:09;;;;;;;6.03;2.23;;;11.80;99.90;;;;;;5033580;28;20172;-42
2022/09/20 00:32:35;;;;;;;5.67;2.30;;;11.80;99.90;;;;;;5033696;28;20192;-43
2022/09/20 00:35:06;;;;;;;7.33;2.40;;;11.80;99.90;;;;;;5032789;28;20176;-43
2022/09/20 00:37:33;;;;;;;6.70;2.10;;;11.80;99.90;;;;;;5033494;28;20680;-43
2022/09/20 00:40:00;;;;;;;7.27;2.20;;;11.80;99.90;;;;;;5033258;28;20275;-42
2022/09/20 00:42:30;;;;;;;7.10;2.10;;;11.80;99.90;;;;;;5033716;28;20389;-41
2022/09/20 00:45:05;;;;;;;6.03;2.37;;;11.80;99.90;;;;;;5033558;28;20639;-41
2022/09/20 00:47:42;;;;;;;7.30;2.50;;;11.70;99.90;;;;;;5033102;28;20216;-44
2022/09/20 00:50:43;;;;;;;4.00;2.13;;;11.70;99.90;;;;;;5033102;28;20172;-41
2022/09/20 00:53:27;;;;;;;5.40;2.10;;;11.70;99.90;;;;;;5031843;28;20273;-40
2022/09/20 00:55:58;;;;;;;8.53;2.10;;;11.80;99.90;;;;;;5032978;28;20266;-39
2022/09/20 00:58:27;;;;;;;3.83;1.93;;;11.70;99.90;;;;;;5033316;28;20209;-43
2022/09/20 01:00:55;;;;;;;6.03;1.77;;;11.80;99.90;;;;;;5032986;28;20597;-41
2022/09/20 01:03:22;;;;;;;7.30;2.10;;;11.70;99.90;;;;;;5033020;28;20649;-41
2022/09/20 01:05:50;;;;;;;10.73;2.40;;;11.70;99.90;;;;;;5033081;28;20642;-43
2022/09/20 01:08:16;;;;;;;6.20;2.33;;;11.70;99.90;;;;;;5032770;28;20315;-42
2022/09/20 01:10:42;;;;;;;3.73;2.13;;;11.70;99.90;;;;;;5033341;28;20199;-43
2022/09/20 01:13:08;;;;;;;3.37;1.57;;;11.70;99.90;;;;;;5033258;28;20646;-42
2022/09/20 01:15:36;;;;;;;6.23;2.03;;;11.70;99.90;;;;;;5033207;28;20572;-44
2022/09/20 01:18:04;;;;;;;8.53;2.37;;;11.70;99.90;;;;;;5032980;28;20661;-42
2022/09/20 01:20:33;;;;;;;7.33;1.90;;;11.60;99.90;;;;;;5033247;28;20181;-43
2022/09/20 01:23:25;;;;;;;6.77;2.37;;;11.70;99.90;;;;;;5033012;28;20192;-43
2022/09/20 01:26:27;;;;;;;6.17;2.53;;;11.60;99.90;;;;;;5032015;28;20215;-42
2022/09/20 01:29:32;;;;;;;3.93;2.17;;;11.60;99.90;;;;;;5032738;28;20267;-42
2022/09/20 01:32:02;;;;;;;5.83;1.90;;;11.60;99.90;;;;;;5016694;28;20192;-43
2022/09/20 01:34:36;;;;;;;3.30;1.80;;;11.60;99.90;;;;;;5032957;28;20235;-42
2022/09/20 01:37:35;;;;;;;7.00;2.00;;;11.60;99.90;;;;;;5032978;28;20533;-42
2022/09/20 01:40:39;;;;;;;5.67;1.90;;;11.60;99.90;;;;;;5033059;28;20319;-42
2022/09/20 01:43:27;;;;;;;4.27;1.80;;;11.60;99.90;;;;;;5028072;28;20494;-42
2022/09/20 01:45:53;;;;;;;4.10;1.50;;;11.60;99.90;;;;;;5034177;28;20171;-42
2022/09/20 01:48:38;;;;;;;4.00;1.70;;;11.60;99.90;;;;;;5035489;28;20262;-43
2022/09/20 01:51:24;;;;;;;6.20;1.70;;;11.50;99.90;;;;;;5037129;28;20581;-42
2022/09/20 01:54:11;;;;;;;5.90;1.70;;;11.50;99.90;;;;;;5036795;28;20172;-42
2022/09/20 01:56:58;;;;;;;7.23;1.60;;;11.50;99.90;;;;;;5036520;28;20211;-40
2022/09/20 01:59:55;;;;;;;7.60;1.97;;;11.50;99.90;;;;;;5036148;28;20245;-42
2022/09/20 02:03:03;;;;;;;5.67;2.00;;;11.50;99.90;;;;;;5032195;28;20198;-40
2022/09/20 02:05:37;;;;;;;5.83;2.13;;;11.50;99.90;;;;;;5036156;28;20748;-43
2022/09/20 02:08:14;;;;;;;5.63;1.67;;;11.50;99.90;;;;;;5036140;28;20200;-42
2022/09/20 02:10:49;;;;;;;6.83;1.73;;;11.50;99.90;;;;;;5036253;28;20191;-41
2022/09/20 02:13:29;;;;;;;10.43;1.80;;;11.50;99.90;;;;;;5036255;28;20177;-42
2022/09/20 02:16:13;;;;;;;7.63;3.17;;;11.50;99.90;;;;;;5036070;28;20180;-41
2022/09/20 02:19:01;;;;;;;6.03;1.70;;;11.50;99.90;;;;;;5036368;28;20610;-43
2022/09/20 02:21:53;;;;;;;5.50;1.70;;;11.50;99.90;;;;;;5036356;28;20177;-44
2022/09/20 02:24:30;;;;;;;5.73;1.47;;;11.50;99.90;;;;;;5035881;28;20176;-42
2022/09/20 02:27:02;;;;;;;6.13;1.80;;;11.50;99.90;;;;;;5036050;28;20568;-43
2022/09/20 02:29:56;;;;;;;6.13;1.37;;;11.50;99.90;;;;;;5035699;28;20180;-42
2022/09/20 02:33:01;;;;;;;3.83;1.47;;;11.40;99.90;;;;;;5035769;28;20164;-46
2022/09/20 02:35:35;;;;;;;5.00;1.57;;;11.40;99.90;;;;;;5035884;28;20164;-43
2022/09/20 02:38:07;;;;;;;5.47;1.63;;;11.40;99.90;;;;;;5035840;28;20254;-45
2022/09/20 02:40:54;;;;;;;7.17;1.60;;;11.40;99.90;;;;;;5035763;28;20179;-42
2022/09/20 02:43:28;;;;;;;5.20;1.20;;;11.40;99.90;;;;;;5035511;28;20207;-45
2022/09/20 02:46:23;;;;;;;8.63;2.00;;;11.40;99.90;;;;;;5035630;28;20524;-44
2022/09/20 02:49:16;;;;;;;6.77;1.50;;;11.30;99.90;;;;;;5033053;28;20223;-43
2022/09/20 02:52:12;;;;;;;5.70;1.50;;;11.30;99.90;;;;;;5035557;28;20171;-45
2022/09/20 02:54:49;;;;;;;7.20;1.63;;;11.40;99.90;;;;;;5035589;28;20168;-44
2022/09/20 02:57:41;;;;;;;3.43;1.47;;;11.30;99.90;;;;;;5034602;28;20212;-43
2022/09/20 03:00:27;;;;;;;5.13;1.77;;;11.30;99.90;;;;;;5035343;28;20184;-44
2022/09/20 03:02:53;;;;;;;4.87;1.43;;;11.40;99.90;;;;;;5035397;28;20718;-44
2022/09/20 03:06:10;;;;;;;6.73;1.73;;;11.40;99.90;;;;;;5034875;28;20221;-45
2022/09/20 03:08:54;;;;;;;6.33;1.63;;;11.30;99.90;;;;;;5026431;28;20259;-43
2022/09/20 03:11:43;;;;;;;5.80;2.00;;;11.40;99.90;;;;;;5035369;28;20199;-42
2022/09/20 03:14:29;;;;;;;6.70;1.90;;;11.30;99.90;;;;;;5034987;28;20243;-44
2022/09/20 03:17:26;;;;;;;5.13;1.47;;;11.30;99.90;;;;;;5035104;28;20201;-44
2022/09/20 03:20:22;;;;;;;9.37;1.60;;;11.30;99.90;;;;;;5034879;28;20676;-45
2022/09/20 03:23:08;;;;;;;3.80;1.50;;;11.30;99.90;;;;;;5035372;28;20611;-42
2022/09/20 03:25:37;;;;;;;5.57;1.50;;;11.30;99.90;;;;;;5034912;28;20172;-43
2022/09/20 03:28:31;;;;;;;4.50;1.60;;;11.30;99.90;;;;;;5034982;28;20211;-42
2022/09/20 03:30:59;;;;;;;5.20;1.50;;;11.30;99.90;;;;;;5033832;28;20596;-44
2022/09/20 03:33:47;;;;;;;4.47;1.50;;;11.30;99.90;;;;;;5034624;28;20187;-44
2022/09/20 03:36:50;;;;;;;4.63;2.20;;;11.30;99.90;;;;;;5034357;28;20528;-43
2022/09/20 03:39:28;;;;;;;6.33;1.80;;;11.30;99.90;;;;;;5034629;28;20207;-46
2022/09/20 03:42:02;;;;;;;6.60;1.83;;;11.20;99.90;;;;;;5035020;28;20172;-44
2022/09/20 03:44:48;;;;;;;6.80;1.67;;;11.20;99.90;;;;;;5034254;28;20602;-43
2022/09/20 03:47:27;;;;;;;4.23;1.67;;;11.20;99.90;;;;;;5034579;28;20204;-44
2022/09/20 03:50:11;;;;;;;4.77;2.07;;;11.20;99.90;;;;;;5034706;28;20154;-43
2022/09/20 03:52:48;;;;;;;7.90;1.93;;;11.20;99.90;;;;;;5034192;28;20168;-44
2022/09/20 03:55:48;;;;;;;3.83;1.77;;;11.20;99.90;;;;;;5034433;28;20160;-45
2022/09/20 03:58:47;;;;;;;7.40;1.90;;;11.20;99.90;;;;;;5022912;28;20685;-45
2022/09/20 04:01:39;;;;;;;4.67;2.00;;;11.20;99.90;;;;;;5034637;28;20244;-43
2022/09/20 04:04:35;;;;;;;6.90;2.20;;;11.20;99.90;;;;;;5032890;28;20279;-42
2022/09/20 04:07:37;;;;;;;11.00;2.10;;;11.20;99.90;;;;;;5034057;28;20208;-45
2022/09/20 04:10:19;;;;;;;7.27;2.70;;;11.20;99.90;;;;;;5033390;28;20163;-44
2022/09/20 04:13:04;;;;;;;8.87;2.87;;;11.20;99.90;;;;;;5034388;28;20163;-44
2022/09/20 04:16:00;;;;;;;6.57;2.07;;;11.20;99.90;;;;;;5034908;28;20615;-42
2022/09/20 04:18:57;;;;;;;6.87;1.93;;;11.20;99.90;;;;;;5035251;28;20248;-43
2022/09/20 04:21:35;;;;;;;8.67;2.67;;;11.20;99.90;;;;;;5036071;28;20271;-43
2022/09/20 04:24:20;;;;;;;4.47;2.43;;;11.20;99.90;;;;;;5034864;28;20169;-41
2022/09/20 04:27:12;;;;;;;8.77;2.70;;;11.20;99.90;;;;;;5033908;28;20230;-40
2022/09/20 04:29:54;;;;;;;7.40;2.33;;;11.20;99.90;;;;;;5030888;28;20666;-43
2022/09/20 04:32:41;;;;;;;9.20;2.43;;;11.20;99.90;;;;;;5035137;28;20254;-42
2022/09/20 04:38:25;;;;;;;7.77;2.77;;;11.10;99.90;;;;;;5033475;28;20218;-39
2022/09/20 04:41:29;;;;;;;5.73;2.83;;;11.10;99.90;;;;;;5033311;28;20182;-39
2022/09/20 04:44:29;;;;;;;8.87;3.20;;;11.10;99.90;;;;;;5034077;28;20164;-41
2022/09/20 04:47:16;;;;;;;4.10;2.30;;;11.10;99.90;;;;;;5033144;28;20757;-39
2022/09/20 04:50:28;;;;;;;8.07;3.23;;;11.10;99.90;;;;;;5033511;28;20234;-38
2022/09/20 04:53:13;;;;;;;7.63;3.00;;;11.10;99.90;;;;;;5031994;28;20611;-40
2022/09/20 04:55:54;;;;;;;11.23;3.23;;;11.10;99.90;;;;;;5033101;28;20176;-41
2022/09/20 04:58:56;;;;;;;12.87;3.77;;;11.10;99.90;;;;;;5033274;28;20196;-40
2022/09/20 05:01:43;;;;;;;9.70;3.70;;;11.10;99.90;;;;;;5033122;28;20187;-38
2022/09/20 05:04:30;;;;;;;6.03;3.07;;;11.10;99.90;;;;;;5031978;28;20184;-39
2022/09/20 05:07:18;;;;;;;6.77;3.20;;;11.10;99.90;;;;;;5033228;28;20286;-37
2022/09/20 05:10:06;;;;;;;9.07;3.43;;;11.10;99.90;;;;;;5032891;28;20247;-40
2022/09/20 05:13:06;;;;;;;7.80;3.40;;;11.00;99.90;;;;;;5032953;28;20215;-41
2022/09/20 05:15:37;;;;;;;7.50;3.23;;;11.00;99.90;;;;;;5014784;28;20346;-42
2022/09/20 05:18:27;;;;;;;10.30;3.80;;;11.00;99.90;;;;;;5033500;28;20276;-39
2022/09/20 05:21:11;;;;;;;7.40;3.17;;;11.00;99.90;;;;;;5035924;28;20172;-40
2022/09/20 05:24:00;;;;;;;6.83;3.30;;;11.00;99.90;;;;;;5036970;28;20203;-41
2022/09/20 05:26:43;;;;;;;6.13;2.93;;;11.00;99.90;;;;;;5037190;28;20180;-40
2022/09/20 05:29:28;;;;;;;6.50;3.43;;;11.00;99.90;;;;;;5035597;28;20207;-41
2022/09/20 05:32:18;;;;;;;6.80;3.63;;;11.00;99.90;;;;;;5036846;28;20604;-40
2022/09/20 05:35:23;;;;;;;7.87;3.50;;;11.00;99.90;;;;;;5037136;28;20172;-42
2022/09/20 05:38:23;;;;;;;7.53;3.70;;;11.00;99.90;;;;;;5036981;28;20195;-40
2022/09/20 05:41:14;;;;;;;8.07;3.23;;;10.90;99.90;;;;;;5022450;28;20606;-40
2022/09/20 05:44:08;;;;;;;8.93;4.53;;;11.00;99.90;;;;;;5036989;28;20179;-40
2022/09/20 05:46:39;;;;;;;9.03;4.57;;;10.90;99.90;;;;;;5035260;28;20669;-42
2022/09/20 05:49:04;;;;;;;8.50;3.77;;;10.90;99.90;;;;;;5036950;28;20214;-39
2022/09/20 05:51:59;;;;;;;9.87;4.23;;;10.90;99.90;;;;;;5036425;28;20540;-39
2022/09/20 05:54:57;;;;;;;13.37;4.10;;;10.90;99.90;;;;;;5035418;28;20191;-39
2022/09/20 05:57:40;;;;;;;5.73;3.47;;;10.90;99.90;;;;;;5036347;28;20215;-38
2022/09/20 06:00:19;;;;;;;7.40;3.90;;;10.90;99.90;;;;;;5034975;28;20662;-40
2022/09/20 06:03:03;;;;;;;11.80;4.27;;;10.90;99.90;;;;;;5036472;28;20630;-37
2022/09/20 06:05:36;;;;;;;10.30;4.37;;;10.90;99.90;;;;;;5034973;28;20179;-38
2022/09/20 06:08:11;;;;;;;8.83;4.50;;;10.90;99.90;;;;;;5034801;28;20739;-38
2022/09/20 06:10:51;;;;;;;13.07;4.70;;;10.90;99.90;;;;;;5036286;28;20633;-38
2022/09/20 06:13:32;;;;;;;6.50;4.10;;;11.00;99.90;;;;;;5036040;28;20211;-39
2022/09/20 06:16:01;;;;;;;7.83;4.10;;;11.00;99.90;;;;;;5036345;28;20183;-39
2022/09/20 06:18:58;;;;;;;14.67;4.07;;;11.00;99.90;;;;;;5036256;28;20591;-39
2022/09/20 06:21:40;;;;;;;13.67;4.53;;;11.10;99.90;;;;;;5031432;28;20192;-38
2022/09/20 06:24:24;;;;;;;10.53;4.20;;;11.10;99.90;;;;;;5036454;28;20599;-38
2022/09/20 06:26:51;;;;;;;8.33;3.80;;;11.20;99.90;;;;;;5036707;28;20199;-40
2022/09/20 06:29:32;;;;;;;7.43;3.73;;;11.20;99.90;;;;;;5035823;28;20207;-40
2022/09/20 06:31:57;;;;;;;7.50;3.77;;;11.20;99.90;;;;;;5035523;28;20656;-38
2022/09/20 06:34:25;;;;;;;7.37;3.70;;;11.20;99.90;;;;;;5035616;28;20180;-40
2022/09/20 06:43:30;;;;;;;7.47;3.40;;;11.20;99.90;;;;;;5034809;28;20177;-39
2022/09/20 06:45:56;;;;;;;14.83;4.60;;;11.30;99.90;;;;;;5036045;28;20177;-41
2022/09/20 06:48:23;;;;;;;10.53;4.07;;;11.40;99.90;;;;;;5035340;28;20705;-39
2022/09/20 06:50:51;;;;;;;5.97;3.40;;;11.50;99.90;;;;;;5035305;28;20175;-37
2022/09/20 06:53:20;;;;;;;12.53;4.37;;;11.50;99.90;;;;;;5035859;28;20192;-40
2022/09/20 06:55:46;;;;;;;5.60;3.93;;;11.60;99.90;;;;;;5035226;28;20195;-40
2022/09/20 06:58:11;;;;;;;7.33;4.00;;;11.60;99.90;;;;;;5035227;28;20215;-38
2022/09/20 07:00:38;;;;;;;14.13;4.33;;;11.60;99.90;;;;;;5035376;28;20195;-39
2022/09/20 07:03:05;;;;;;;8.17;4.30;;;11.60;99.90;;;;;;5035429;28;20187;-39
2022/09/20 07:05:30;;;;;;;10.40;4.20;;;11.70;99.90;;;;;;5035100;28;20177;-40
2022/09/20 07:07:57;;;;;;;10.33;4.73;;;11.80;99.90;;;;;;5035305;28;20238;-39
2022/09/20 07:10:26;;;;;;;9.87;4.23;;;11.80;99.90;;;;;;5035350;28;20180;-38
2022/09/20 07:12:59;;;;;;;10.50;4.10;;;11.90;99.90;;;;;;5035341;28;20188;-42
2022/09/20 07:15:30;;;;;;;10.23;4.33;;;12.00;99.90;;;;;;5034950;28;20187;-41
2022/09/20 07:17:55;;;;;;;9.07;4.37;;;12.00;99.90;;;;;;5035719;28;20251;-40
2022/09/20 07:20:22;;;;;;;10.57;4.47;;;12.10;99.90;;;;;;5034908;28;20235;-39
2022/09/20 07:22:48;;;;;;;8.40;4.00;;;12.10;99.90;;;;;;5034389;28;20627;-38
2022/09/20 07:25:14;;;;;;;9.53;3.63;;;12.10;99.90;;;;;;5034958;28;20191;-39
2022/09/20 07:27:39;;;;;;;7.13;3.50;;;12.20;99.90;;;;;;5035040;28;20211;-40
2022/09/20 07:30:07;;;;;;;8.00;3.73;;;12.20;99.90;;;;;;5034861;28;20209;-37
2022/09/20 07:32:32;;;;;;;9.30;3.67;;;12.30;99.90;;;;;;5034766;28;20259;-39
2022/09/20 07:34:58;;;;;;;7.00;3.40;;;12.30;99.90;;;;;;5034869;28;20258;-38
2022/09/20 07:37:23;;;;;;;5.93;3.77;;;12.40;99.90;;;;;;5034594;28;20270;-37
2022/09/20 07:39:49;;;;;;;10.33;4.00;;;12.40;99.90;;;;;;5034529;28;20188;-39
2022/09/20 07:42:15;;;;;;;11.23;3.97;;;12.50;99.90;;;;;;5034629;28;20260;-40
2022/09/20 07:44:41;;;;;;;10.53;3.87;;;12.50;99.90;;;;;;5034720;28;20231;-38
2022/09/20 07:47:09;;;;;;;8.63;3.77;;;12.50;99.90;;;;;;5034113;28;20216;-39
2022/09/20 07:49:35;;;;;;;11.57;3.80;;;12.70;99.90;;;;;;5034628;28;20180;-40
2022/09/20 07:52:01;;;;;;;7.63;3.47;;;12.80;99.90;;;;;;5034417;28;20177;-39
2022/09/20 07:54:27;;;;;;;9.67;3.57;;;12.80;99.90;;;;;;5034672;28;20276;-39
2022/09/20 07:56:52;;;;;;;10.37;3.57;;;13.00;99.90;;;;;;5032848;28;20220;-40
2022/09/20 07:59:18;;;;;;;7.47;3.20;;;13.10;99.90;;;;;;5034096;28;20184;-41
2022/09/20 08:01:44;;;;;;;8.57;3.17;;;13.20;99.90;;;;;;5034928;28;20547;-39
2022/09/20 08:04:10;;;;;;;8.43;2.90;;;13.30;99.90;;;;;;5034358;28;20270;-38
2022/09/20 08:06:37;;;;;;;4.93;2.80;;;13.40;99.90;;;;;;5033911;28;20205;-40
2022/09/20 08:09:04;;;;;;;10.10;3.40;;;13.40;99.90;;;;;;5034587;28;20216;-39
2022/09/20 08:11:29;;;;;;;6.30;2.47;;;13.40;99.90;;;;;;5033891;28;20184;-38
2022/09/20 08:13:58;;;;;;;7.80;2.50;;;13.50;99.90;;;;;;5033848;28;20203;-38
2022/09/20 08:16:25;;;;;;;5.43;2.27;;;13.60;99.90;;;;;;5034254;28;20577;-42
2022/09/20 08:18:56;;;;;;;6.17;2.67;;;13.60;99.90;;;;;;5033883;28;20183;-40
2022/09/20 08:21:23;;;;;;;10.47;3.07;;;13.60;99.90;;;;;;5033900;28;20235;-40
2022/09/20 08:23:48;;;;;;;7.20;3.03;;;13.70;99.90;;;;;;5035907;28;20589;-42
2022/09/20 08:26:25;;;;;;;7.30;2.60;;;13.80;99.90;;;;;;5033763;28;20187;-38
2022/09/20 08:28:56;;;;;;;7.03;2.57;;;13.80;99.90;;;;;;5034028;28;20535;-40
2022/09/20 08:31:24;;;;;;;9.60;2.73;;;13.90;99.90;;;;;;5033957;28;20232;-39
2022/09/20 08:33:50;;;;;;;4.00;2.00;;;14.00;99.90;;;;;;5033378;28;20188;-39
2022/09/20 08:36:24;;;;;;;6.20;2.23;;;14.10;99.90;;;;;;5033769;28;20276;-40
2022/09/20 08:38:51;;;;;;;10.17;2.13;;;14.10;99.90;;;;;;5033558;28;20202;-39
2022/09/20 08:41:42;;;;;;;8.10;2.50;;;14.20;99.90;;;;;;5033357;28;20196;-39
2022/09/20 08:44:32;;;;;;;4.57;2.57;;;14.20;99.90;;;;;;5033600;28;20315;-41
2022/09/20 08:47:15;;;;;;;7.10;2.80;;;14.30;99.90;;;;;;5033200;28;20201;-41
2022/09/20 08:49:42;;;;;;;6.03;2.30;;;14.40;99.90;;;;;;5033451;28;20173;-40
2022/09/20 08:52:13;;;;;;;4.03;2.17;;;14.50;99.90;;;;;;5033351;28;20541;-41
2022/09/20 08:54:39;;;;;;;7.33;1.93;;;14.60;99.90;;;;;;5033395;28;20172;-37
2022/09/20 08:57:13;;;;;;;13.13;2.37;;;14.70;99.90;;;;;;5033285;28;20318;-41
2022/09/20 08:59:39;;;;;;;5.20;1.90;;;14.90;99.90;;;;;;5033685;28;20177;-42
2022/09/20 09:02:16;;;;;;;4.80;1.63;;;15.00;99.90;;;;;;5033166;28;20179;-39
2022/09/20 09:04:43;;;;;;;8.87;2.07;;;15.00;99.90;;;;;;5033583;28;20256;-38
2022/09/20 09:07:13;;;;;;;6.73;2.03;;;15.10;99.90;;;;;;5033315;28;20204;-41
2022/09/20 09:09:42;;;;;;;3.40;1.63;;;15.10;99.90;;;;;;5033472;28;20199;-41
2022/09/20 09:12:22;;;;;;;6.07;1.80;;;15.20;99.90;;;;;;5033355;28;20247;-40
2022/09/20 09:14:56;;;;;;;5.00;1.30;;;15.20;99.90;;;;;;5033558;28;20398;-40
2022/09/20 09:17:25;;;;;;;7.97;1.47;;;15.30;99.90;;;;;;5033305;28;20271;-41
2022/09/20 09:20:20;;;;;;;4.73;1.40;;;15.40;99.90;;;;;;5033065;28;20180;-41
2022/09/20 09:22:56;;;;;;;3.00;1.17;;;15.50;99.90;;;;;;5033792;28;20244;-42
2022/09/20 09:25:33;;;;;;;4.30;1.27;;;15.70;99.90;;;;;;5033249;28;20272;-42
2022/09/20 09:28:02;;;;;;;2.27;1.00;;;15.60;99.90;;;;;;5033728;28;20216;-44
2022/09/20 09:30:36;;;;;;;6.90;1.20;;;15.60;99.90;;;;;;5033094;28;20181;-44
2022/09/20 09:33:25;;;;;;;6.53;1.40;;;15.50;99.90;;;;;;5033429;28;20529;-45
2022/09/20 09:36:02;;;;;;;4.10;1.83;;;15.50;99.90;;;;;;5030318;28;20202;-44
2022/09/20 09:38:32;;;;;;;2.37;1.37;;;15.70;99.90;;;;;;5033373;28;20200;-44
2022/09/20 09:40:59;;;;;;;5.40;1.73;;;15.70;99.90;;;;;;5033114;28;20204;-46
2022/09/20 09:43:32;;;;;;;2.73;1.60;;;15.60;99.90;;;;;;5033108;28;20188;-47
2022/09/20 09:46:22;;;;;;;4.73;2.27;;;15.50;99.90;;;;;;5033278;28;20169;-44
2022/09/20 09:49:19;;;;;;;4.33;1.60;;;15.40;99.90;;;;;;5033273;28;20197;-45
2022/09/20 09:52:05;;;;;;;3.73;1.80;;;15.40;99.90;;;;;;5033414;28;20165;-43
2022/09/20 09:54:42;;;;;;;6.53;2.10;;;15.30;99.90;;;;;;5033431;28;20223;-43
2022/09/20 09:57:27;;;;;;;8.73;1.93;;;15.30;99.90;;;;;;5032974;28;20221;-45
2022/09/20 10:00:01;;;;;;;4.63;2.00;;;15.40;99.90;;;;;;5033215;28;20180;-45
2022/09/20 10:02:45;;;;;;;4.50;1.50;;;15.70;99.90;;;;;;5033289;28;20272;-44
2022/09/20 10:05:21;;;;;;;5.97;1.87;;;15.90;99.90;;;;;;5033535;28;20173;-44
2022/09/20 10:08:25;;;;;;;4.83;1.70;;;16.00;99.90;;;;;;5035008;28;20209;-41
2022/09/20 10:11:09;;;;;;;4.50;1.40;;;16.10;99.90;;;;;;5028279;28;20213;-41
2022/09/20 10:13:37;;;;;;;5.77;1.63;;;16.20;99.90;;;;;;5036321;28;20177;-41
2022/09/20 10:16:12;;;;;;;4.33;1.17;;;16.20;99.90;;;;;;5036285;28;20177;-41
2022/09/20 10:18:46;;;;;;;5.80;1.07;;;16.30;99.90;;;;;;5036859;28;20598;-40
2022/09/20 10:21:33;;;;;;;5.13;1.83;;;16.30;99.90;;;;;;5036606;28;20604;-40
2022/09/20 10:24:29;;;;;;;4.07;1.03;;;16.30;99.90;;;;;;5036572;28;20219;-41
2022/09/20 10:27:47;;;;;;;5.23;1.13;;;16.20;99.90;;;;;;5036618;28;20216;-40
2022/09/20 10:30:20;;;;;;;4.43;1.20;;;16.10;99.90;;;;;;5015123;28;20671;-41
2022/09/20 10:33:07;;;;;;;6.57;1.40;;;15.90;99.90;;;;;;5034736;28;20580;-40
2022/09/20 10:36:00;;;;;;;5.00;1.10;;;16.00;99.90;;;;;;5036852;28;20157;-42
2022/09/20 10:38:34;;;;;;;3.33;1.17;;;16.00;99.90;;;;;;5036495;28;20213;-40
2022/09/20 10:44:15;;;;;;;3.53;1.03;;;16.10;99.90;;;;;;5038632;28;20572;-42
2022/09/20 10:46:51;;;;;;;5.83;1.00;;;16.00;99.90;;;;;;5034385;28;20688;-40
2022/09/20 10:49:31;;;;;;;5.50;1.20;;;16.00;99.90;;;;;;5035372;28;20200;-39
2022/09/20 10:52:20;;;;;;;3.50;0.90;;;15.90;99.90;;;;;;5035525;28;20165;-39
2022/09/20 10:55:07;;;;;;;3.40;1.30;;;15.80;99.90;;;;;;5032269;28;20196;-39
2022/09/20 10:58:00;;;;;;;3.40;1.00;;;15.60;99.90;;;;;;5035344;28;20226;-40
2022/09/20 11:01:01;;;;;;;5.43;1.30;;;15.60;99.90;;;;;;5035311;28;20250;-38
2022/09/20 11:04:03;;;;;;;3.87;1.20;;;15.50;99.90;;;;;;5035408;28;20176;-39
2022/09/20 11:07:01;;;;;;;3.23;0.90;;;15.40;99.90;;;;;;5035303;28;20200;-41
2022/09/20 11:09:33;;;;;;;5.53;1.33;;;15.40;99.90;;;;;;5035588;28;20661;-40
2022/09/20 11:12:24;;;;;;;4.93;1.20;;;15.30;99.90;;;;;;5035462;28;20165;-40
2022/09/20 11:14:56;;;;;;;3.13;1.17;;;15.20;99.90;;;;;;5035315;28;20247;-41
2022/09/20 11:17:34;;;;;;;3.23;0.93;;;15.10;99.90;;;;;;5034828;28;20255;-40
2022/09/20 11:20:14;;;;;;;5.43;1.20;;;15.00;99.90;;;;;;5035158;28;20272;-41
2022/09/20 11:22:54;;;;;;;4.80;1.40;;;14.90;99.90;;;;;;5034811;28;20211;-40
2022/09/20 11:25:43;;;;;;;3.17;0.97;;;14.90;99.90;;;;;;5035190;28;20171;-40
2022/09/20 11:28:12;;;;;;;1.43;0.83;;;14.80;99.90;;;;;;5034450;28;20208;-42
2022/09/20 11:30:54;;;;;;;2.97;0.83;;;14.60;99.90;;;;;;5034609;28;20188;-41
2022/09/20 11:33:36;;;;;;;2.37;0.90;;;14.40;99.90;;;;;;5034848;28;20165;-40
2022/09/20 11:36:07;;;;;;;6.03;0.97;;;14.30;99.90;;;;;;5034782;28;20220;-38
2022/09/20 11:38:56;;;;;;;2.70;0.80;;;14.20;99.90;;;;;;5034805;28;20209;-38
2022/09/20 11:41:27;;;;;;;3.20;1.00;;;14.10;99.90;;;;;;5034803;28;20176;-39
2022/09/20 11:43:58;;;;;;;3.97;0.90;;;14.10;99.90;;;;;;5034545;28;20177;-40
2022/09/20 11:46:33;;;;;;;3.80;0.80;;;14.00;99.90;;;;;;5034612;28;20169;-41
2022/09/20 11:49:08;;;;;;;4.13;0.80;;;14.00;99.90;;;;;;5034324;28;20572;-40
2022/09/20 11:51:45;;;;;;;4.10;0.90;;;14.00;99.90;;;;;;5034330;28;20169;-40
2022/09/20 11:54:35;;;;;;;7.00;1.27;;;14.00;99.90;;;;;;5034636;28;20160;-40
2022/09/20 11:57:02;;;;;;;3.20;1.07;;;14.10;99.90;;;;;;5034149;28;20586;-41
2022/09/20 11:59:39;;;;;;;2.97;1.03;;;14.10;99.90;;;;;;5034170;28;20666;-39
2022/09/20 12:02:43;;;;;;;4.47;1.10;;;14.10;99.90;;;;;;5034334;28;20267;-41
2022/09/20 12:05:26;;;;;;;3.50;1.03;;;14.20;99.90;;;;;;5034067;28;20208;-40
2022/09/20 12:07:54;;;;;;;4.50;1.13;;;14.10;99.90;;;;;;5034183;28;20213;-39
2022/09/20 12:10:29;;;;;;;3.33;0.83;;;14.20;99.90;;;;;;5034222;28;20177;-38
2022/09/20 12:13:01;;;;;;;3.17;0.90;;;14.10;99.90;;;;;;5032876;28;20207;-42
2022/09/20 12:15:30;;;;;;;2.30;0.97;;;13.90;99.90;;;;;;5033799;28;20177;-43
2022/09/20 12:17:56;;;;;;;3.83;1.20;;;13.70;99.90;;;;;;5033882;28;20694;-40
2022/09/20 12:20:33;;;;;;;9.47;1.30;;;13.40;99.90;;;;;;5033990;28;20204;-43
2022/09/20 12:23:39;;;;;;;2.20;1.10;;;13.20;99.90;;;;;;5033628;28;20188;-42
2022/09/20 12:26:06;;;;;;;4.43;1.50;;;13.00;99.90;;;;;;5033765;28;20181;-41
2022/09/20 12:28:34;;;;;;;11.10;4.57;;;12.90;99.90;;;;;;5032401;28;20561;-42
2022/09/20 12:31:18;;;;;;;7.67;3.33;;;12.90;99.90;;;;;;5033687;28;20181;-42
2022/09/20 12:33:58;;;;;;;10.13;4.70;;;12.90;99.90;;;;;;5034277;28;20246;-41
2022/09/20 12:36:25;;;;;;;14.57;7.57;;;12.90;99.90;;;;;;5032142;28;20627;-42
2022/09/20 12:39:21;;;;;;;11.43;5.93;;;12.90;99.90;;;;;;5034092;28;20193;-39
2022/09/20 12:41:55;;;;;;;9.13;3.83;;;12.90;99.90;;;;;;5031389;28;20227;-41
2022/09/20 12:44:40;;;;;;;4.43;2.10;;;13.00;99.90;;;;;;5034258;28;20189;-42
2022/09/20 12:47:09;;;;;;;3.57;1.50;;;13.10;99.90;;;;;;5033595;28;20228;-42
2022/09/20 12:52:56;;;;;;;3.20;1.40;;;13.40;99.90;;;;;;5033695;28;20165;-41
2022/09/20 12:55:28;;;;;;;2.37;1.10;;;13.50;99.90;;;;;;5034147;28;20162;-41
2022/09/20 12:58:00;;;;;;;6.33;1.20;;;13.60;99.90;;;;;;5033295;28;20212;-38
2022/09/20 13:00:58;;;;;;;3.67;1.63;;;13.70;99.90;;;;;;5036004;28;20204;-41
2022/09/20 13:03:27;;;;;;;2.60;1.00;;;13.90;99.90;;;;;;5033527;28;20161;-40
2022/09/20 13:06:05;;;;;;;5.77;1.70;;;14.00;99.90;;;;;;5033152;28;20192;-40
2022/09/20 13:08:58;;;;;;;2.33;1.20;;;14.10;99.90;;;;;;5033100;28;20621;-39
2022/09/20 13:11:43;;;;;;;4.47;1.27;;;14.20;99.90;;;;;;5033063;28;20231;-39
2022/09/20 13:14:11;;;;;;;9.40;2.20;;;14.40;99.90;;;;;;5033275;28;20189;-38
2022/09/20 13:16:57;;;;;;;4.73;1.40;;;14.40;99.90;;;;;;5033422;28;20201;-41
2022/09/20 13:19:29;;;;;;;4.80;1.77;;;14.50;99.90;;;;;;5033394;28;20313;-40
2022/09/20 13:22:31;;;;;;;3.63;1.57;;;14.50;99.90;;;;;;5032246;28;20173;-39
2022/09/20 13:25:00;;;;;;;5.77;1.53;;;14.50;99.90;;;;;;5033154;28;20161;-38
2022/09/20 13:27:37;;;;;;;5.87;1.47;;;14.70;99.90;;;;;;5031831;28;20204;-39
2022/09/20 13:30:24;;;;;;;4.70;1.70;;;14.60;99.90;;;;;;5033088;28;20252;-40
2022/09/20 13:32:50;;;;;;;6.27;1.40;;;14.70;99.90;;;;;;5033594;28;20172;-38
2022/09/20 13:35:26;;;;;;;3.70;1.57;;;14.70;99.90;;;;;;5033701;28;20550;-39
2022/09/20 13:37:55;;;;;;;6.83;1.27;;;14.80;99.90;;;;;;5033004;28;20208;-38
2022/09/20 13:40:37;;;;;;;3.23;1.20;;;14.90;99.90;;;;;;5033152;28;20256;-41
2022/09/20 13:43:22;;;;;;;3.73;1.10;;;14.90;99.90;;;;;;5037106;28;20180;-41
2022/09/20 13:45:55;;;;;;;2.97;1.00;;;15.00;99.90;;;;;;5037075;28;20173;-42
2022/09/20 13:48:24;;;;;;;6.50;1.13;;;15.10;99.90;;;;;;5036845;28;20295;-39
2022/09/20 13:50:49;;;;;;;4.67;1.20;;;15.20;99.90;;;;;;5036652;28;20180;-39
2022/09/20 13:53:17;;;;;;;4.00;1.00;;;15.20;99.90;;;;;;5036653;28;20188;-39
2022/09/20 13:55:44;;;;;;;4.60;1.13;;;15.30;99.90;;;;;;5036848;28;20173;-44
2022/09/20 13:58:30;;;;;;;3.73;1.10;;;15.30;99.90;;;;;;5036350;28;20223;-43
2022/09/20 14:01:03;;;;;;;4.67;1.00;;;15.20;99.90;;;;;;5037156;28;20180;-43